Time;durP1;ratioP1;P1;durP2;ratioP2;P2;SDS_P1;SDS_P2;PMS_P1;PMS_P2;Temp;Humidity;BMP_temperature;BMP_pressure;BME280_temperature;BME280_humidity;BME280_pressure;Samples;Min_cycle;Max_cycle;Signal;HPM_P1;HPM_P2
2022/03/07 00:01:10;;;;;;;23.33;15.23;;;;;;;;;;4971781;28;20046;-69
2022/03/07 00:04:16;;;;;;;23.63;15.30;;;;;;;;;;4971548;28;20045;-70
2022/03/07 00:07:21;;;;;;;29.35;15.50;;;;;;;;;;4972079;28;20045;-71
2022/03/07 00:10:25;;;;;;;31.30;17.17;;;;;;;;;;4971980;28;20054;-70
2022/03/07 00:13:30;;;;;;;23.30;14.48;;;;;;;;;;4971809;28;20042;-70
2022/03/07 00:16:35;;;;;;;22.35;13.85;;;;;;;;;;4971595;28;20069;-71
2022/03/07 00:19:39;;;;;;;25.83;14.25;;;;;;;;;;4971654;28;20041;-70
2022/03/07 00:22:43;;;;;;;25.23;15.07;;;;;;;;;;4971830;28;20046;-70
2022/03/07 00:25:48;;;;;;;27.05;16.63;;;;;;;;;;4974731;28;20041;-70
2022/03/07 00:28:53;;;;;;;28.58;18.42;;;;;;;;;;4975347;28;20057;-70
2022/03/07 00:31:57;;;;;;;32.13;18.55;;;;;;;;;;4975463;28;20045;-71
2022/03/07 00:35:01;;;;;;;30.02;18.58;;;;;;;;;;4963373;28;20050;-71
2022/03/07 00:38:06;;;;;;;30.90;18.50;;;;;;;;;;4975581;28;20042;-70
2022/03/07 00:41:11;;;;;;;29.35;17.10;;;;;;;;;;4975062;28;20066;-69
2022/03/07 00:44:15;;;;;;;29.90;18.08;;;;;;;;;;4963134;28;20050;-70
2022/03/07 00:47:19;;;;;;;28.77;18.02;;;;;;;;;;4963107;28;20049;-70
2022/03/07 00:50:24;;;;;;;28.00;17.83;;;;;;;;;;4975142;28;20553;-70
2022/03/07 00:53:28;;;;;;;27.65;17.42;;;;;;;;;;4963096;28;20058;-69
2022/03/07 00:56:33;;;;;;;25.85;15.65;;;;;;;;;;4963256;28;20537;-70
2022/03/07 00:59:37;;;;;;;22.88;13.75;;;;;;;;;;4974862;28;20061;-70
2022/03/07 01:02:41;;;;;;;21.92;13.82;;;;;;;;;;4974890;28;20510;-70
2022/03/07 01:05:46;;;;;;;21.92;13.05;;;;;;;;;;4974958;28;20391;-70
2022/03/07 01:08:50;;;;;;;22.65;13.07;;;;;;;;;;4974445;28;20053;-69
2022/03/07 01:11:54;;;;;;;24.23;13.55;;;;;;;;;;4962778;28;20513;-70
2022/03/07 01:14:59;;;;;;;21.05;13.55;;;;;;;;;;4973707;28;20548;-69
2022/03/07 01:18:04;;;;;;;21.90;13.50;;;;;;;;;;4973706;28;20042;-69
2022/03/07 01:21:09;;;;;;;25.58;13.38;;;;;;;;;;4973732;28;20057;-69
2022/03/07 01:24:13;;;;;;;22.95;13.73;;;;;;;;;;4973379;28;20049;-71
2022/03/07 01:27:17;;;;;;;20.85;13.18;;;;;;;;;;4961178;28;20062;-69
2022/03/07 01:30:22;;;;;;;21.67;13.50;;;;;;;;;;4973262;28;20050;-70
2022/03/07 01:33:26;;;;;;;26.50;14.65;;;;;;;;;;4973066;28;20395;-70
2022/03/07 01:36:31;;;;;;;23.70;14.07;;;;;;;;;;4973368;28;20054;-70
2022/03/07 01:39:35;;;;;;;24.15;13.88;;;;;;;;;;4973010;28;20046;-68
2022/03/07 01:42:39;;;;;;;25.95;14.65;;;;;;;;;;4973234;28;20041;-68
2022/03/07 01:45:43;;;;;;;26.33;15.27;;;;;;;;;;4961288;28;20045;-69
2022/03/07 01:48:48;;;;;;;24.02;14.68;;;;;;;;;;4972899;28;20053;-69
2022/03/07 01:51:53;;;;;;;30.98;16.52;;;;;;;;;;4961299;28;20046;-69
2022/03/07 01:54:58;;;;;;;27.63;16.30;;;;;;;;;;4960689;28;20062;-69
2022/03/07 01:58:02;;;;;;;28.75;16.30;;;;;;;;;;4961003;28;20046;-69
2022/03/07 02:01:06;;;;;;;27.92;16.75;;;;;;;;;;4961126;28;20054;-68
2022/03/07 02:04:11;;;;;;;29.52;16.67;;;;;;;;;;4960840;28;20050;-69
2022/03/07 02:07:15;;;;;;;28.02;16.63;;;;;;;;;;4960715;28;20050;-69
2022/03/07 02:10:19;;;;;;;29.17;16.98;;;;;;;;;;4960728;28;20049;-69
2022/03/07 02:13:24;;;;;;;34.33;18.20;;;;;;;;;;4960354;28;20403;-69
2022/03/07 02:16:49;;;;;;;28.98;17.48;;;;;;;;;;5068363;28;20394;-69
2022/03/07 02:19:56;;;;;;;32.67;19.27;;;;;;;;;;5067517;28;20029;-69
2022/03/07 02:23:00;;;;;;;30.17;18.25;;;;;;;;;;5067334;28;20496;-69
2022/03/07 02:26:14;;;;;;;34.67;19.63;;;;;;;;;;5067421;28;20040;-68
2022/03/07 02:29:19;;;;;;;32.90;19.42;;;;;;;;;;5067581;28;20384;-69
2022/03/07 02:32:25;;;;;;;32.22;18.98;;;;;;;;;;5067480;28;20041;-69
2022/03/07 02:35:30;;;;;;;30.15;18.25;;;;;;;;;;5066942;28;20060;-68
2022/03/07 02:38:36;;;;;;;26.25;16.77;;;;;;;;;;5067233;28;20033;-69
2022/03/07 02:41:41;;;;;;;26.95;15.20;;;;;;;;;;5067046;28;20401;-69
2022/03/07 02:44:46;;;;;;;26.08;16.00;;;;;;;;;;5067823;28;20611;-69
2022/03/07 02:47:51;;;;;;;22.60;13.55;;;;;;;;;;5067980;28;20045;-70
2022/03/07 02:50:57;;;;;;;20.33;12.63;;;;;;;;;;5067110;28;20040;-70
2022/03/07 02:54:02;;;;;;;20.90;12.55;;;;;;;;;;5067803;28;20041;-70
2022/03/07 02:57:07;;;;;;;19.98;12.23;;;;;;;;;;5067751;28;20089;-70
2022/03/07 03:00:11;;;;;;;20.50;11.82;;;;;;;;;;5067753;28;20049;-69
2022/03/07 03:03:15;;;;;;;19.88;11.93;;;;;;;;;;5066709;28;20044;-69
2022/03/07 03:06:20;;;;;;;15.73;9.93;;;;;;;;;;5067655;28;20036;-69
2022/03/07 03:09:25;;;;;;;16.50;10.23;;;;;;;;;;5067420;28;20045;-69
2022/03/07 03:12:29;;;;;;;17.17;10.20;;;;;;;;;;5066978;28;20037;-70
2022/03/07 03:15:33;;;;;;;18.67;10.80;;;;;;;;;;5066661;28;20044;-69
2022/03/07 03:18:38;;;;;;;17.48;10.95;;;;;;;;;;5067125;28;20056;-70
2022/03/07 03:21:42;;;;;;;16.92;11.13;;;;;;;;;;5066879;28;20029;-70
2022/03/07 03:24:50;;;;;;;16.38;11.05;;;;;;;;;;5067026;28;20048;-70
2022/03/07 03:27:54;;;;;;;17.38;10.95;;;;;;;;;;5055506;28;20036;-68
2022/03/07 03:30:59;;;;;;;17.05;11.48;;;;;;;;;;5053873;28;20041;-68
2022/03/07 03:34:03;;;;;;;17.50;11.10;;;;;;;;;;5053800;28;20040;-68
2022/03/07 03:37:07;;;;;;;17.00;10.48;;;;;;;;;;5053754;28;20045;-69
2022/03/07 03:40:12;;;;;;;17.13;11.50;;;;;;;;;;5053526;28;20045;-69
2022/03/07 03:43:16;;;;;;;18.45;11.77;;;;;;;;;;5053571;28;20139;-69
2022/03/07 03:46:21;;;;;;;20.73;12.35;;;;;;;;;;5053657;28;20041;-69
2022/03/07 03:49:25;;;;;;;24.73;15.00;;;;;;;;;;5053242;28;20392;-68
2022/03/07 03:52:29;;;;;;;20.13;13.25;;;;;;;;;;5053315;28;20041;-69
2022/03/07 03:55:33;;;;;;;19.52;12.88;;;;;;;;;;5053008;28;20049;-69
2022/03/07 03:58:38;;;;;;;16.02;11.32;;;;;;;;;;5053304;28;20037;-68
2022/03/07 04:01:45;;;;;;;18.33;11.82;;;;;;;;;;5052166;28;20065;-68
2022/03/07 04:04:50;;;;;;;17.85;12.05;;;;;;;;;;5053249;28;20412;-69
2022/03/07 04:07:54;;;;;;;17.77;12.07;;;;;;;;;;5053291;28;20642;-69
2022/03/07 04:10:59;;;;;;;20.25;13.18;;;;;;;;;;5053211;28;20041;-68
2022/03/07 04:14:03;;;;;;;20.80;13.55;;;;;;;;;;5053023;28;20048;-68
2022/03/07 04:17:07;;;;;;;20.90;12.57;;;;;;;;;;5053127;28;20065;-69
2022/03/07 04:20:13;;;;;;;19.98;12.80;;;;;;;;;;5053124;28;20040;-69
2022/03/07 04:23:20;;;;;;;19.00;12.20;;;;;;;;;;5040520;28;20384;-69
2022/03/07 04:26:25;;;;;;;20.05;12.20;;;;;;;;;;5052664;28;20041;-69
2022/03/07 04:29:29;;;;;;;20.20;13.20;;;;;;;;;;5052851;28;20032;-69
2022/03/07 04:32:36;;;;;;;21.52;14.20;;;;;;;;;;5052860;28;20047;-69
2022/03/07 04:35:40;;;;;;;18.80;12.20;;;;;;;;;;5052237;28;20032;-69
2022/03/07 04:38:45;;;;;;;20.45;13.45;;;;;;;;;;5051159;28;20032;-69
2022/03/07 04:41:49;;;;;;;21.35;13.02;;;;;;;;;;5051548;28;20043;-69
2022/03/07 04:44:53;;;;;;;21.15;13.50;;;;;;;;;;5051967;28;20037;-69
2022/03/07 04:47:57;;;;;;;21.45;13.27;;;;;;;;;;5052312;28;20041;-69
2022/03/07 04:51:03;;;;;;;21.50;14.00;;;;;;;;;;5052316;28;20044;-69
2022/03/07 04:54:07;;;;;;;22.40;14.02;;;;;;;;;;5051873;28;20400;-69
2022/03/07 04:57:11;;;;;;;21.23;13.55;;;;;;;;;;5052259;28;20055;-69
2022/03/07 05:00:16;;;;;;;20.50;13.43;;;;;;;;;;5051921;28;20047;-69
2022/03/07 05:03:21;;;;;;;22.83;13.82;;;;;;;;;;5051803;28;20045;-69
2022/03/07 05:06:25;;;;;;;25.00;16.02;;;;;;;;;;5051802;28;20650;-69
2022/03/07 05:09:30;;;;;;;23.30;15.48;;;;;;;;;;5052022;28;20048;-69
2022/03/07 05:12:34;;;;;;;23.58;15.57;;;;;;;;;;5052007;28;20044;-69
2022/03/07 05:15:38;;;;;;;21.17;13.18;;;;;;;;;;5051578;28;20056;-69
2022/03/07 05:18:43;;;;;;;21.88;15.10;;;;;;;;;;5051786;28;20044;-69
2022/03/07 05:21:47;;;;;;;22.90;15.30;;;;;;;;;;5051700;28;20516;-69
2022/03/07 05:24:51;;;;;;;22.92;15.13;;;;;;;;;;5051663;28;20377;-70
2022/03/07 05:27:56;;;;;;;27.30;17.13;;;;;;;;;;5051505;28;20060;-70
2022/03/07 05:31:00;;;;;;;27.85;16.02;;;;;;;;;;5051438;28;20404;-72
2022/03/07 05:34:04;;;;;;;23.83;15.65;;;;;;;;;;5051563;28;20052;-69
2022/03/07 05:37:08;;;;;;;25.27;16.48;;;;;;;;;;5051352;28;20389;-70
2022/03/07 05:40:14;;;;;;;27.95;16.73;;;;;;;;;;5051204;28;20060;-70
2022/03/07 05:43:18;;;;;;;24.85;16.27;;;;;;;;;;5051198;28;20052;-70
2022/03/07 05:46:22;;;;;;;25.98;16.45;;;;;;;;;;5051138;28;20392;-69
2022/03/07 05:49:27;;;;;;;26.58;16.42;;;;;;;;;;5050193;28;20048;-70
2022/03/07 05:52:31;;;;;;;24.80;16.20;;;;;;;;;;5051031;28;20040;-71
2022/03/07 05:55:35;;;;;;;27.48;17.30;;;;;;;;;;5050946;28;20055;-69
2022/03/07 05:58:40;;;;;;;25.02;16.80;;;;;;;;;;5050980;28;20509;-69
2022/03/07 06:01:44;;;;;;;25.98;16.27;;;;;;;;;;5050821;28;20040;-70
2022/03/07 06:04:48;;;;;;;25.35;15.93;;;;;;;;;;5051047;28;20044;-70
2022/03/07 06:07:53;;;;;;;24.42;16.70;;;;;;;;;;5050773;28;20044;-70
2022/03/07 06:10:57;;;;;;;23.90;16.40;;;;;;;;;;5051182;28;20044;-69
2022/03/07 06:14:01;;;;;;;22.85;16.25;;;;;;;;;;5049949;28;20044;-71
2022/03/07 06:17:05;;;;;;;20.45;14.90;;;;;;;;;;5050639;28;20520;-69
2022/03/07 06:20:10;;;;;;;20.63;14.48;;;;;;;;;;5050638;28;20045;-69
2022/03/07 06:23:14;;;;;;;19.95;15.30;;;;;;;;;;5050528;28;20044;-71
2022/03/07 06:26:19;;;;;;;21.20;15.15;;;;;;;;;;5050467;28;20040;-69
2022/03/07 06:29:23;;;;;;;20.88;16.17;;;;;;;;;;5050431;28;20048;-66
2022/03/07 06:32:27;;;;;;;24.35;16.17;;;;;;;;;;5050480;28;20040;-66
2022/03/07 06:35:32;;;;;;;24.23;18.20;;;;;;;;;;5050369;28;20086;-66
2022/03/07 06:38:37;;;;;;;22.90;18.92;;;;;;;;;;5050539;28;20044;-66
2022/03/07 06:41:42;;;;;;;22.92;17.70;;;;;;;;;;5050802;28;20420;-66
2022/03/07 06:44:46;;;;;;;27.15;20.65;;;;;;;;;;5050798;28;20111;-67
2022/03/07 06:47:50;;;;;;;22.80;18.58;;;;;;;;;;5050484;28;20039;-64
2022/03/07 06:50:55;;;;;;;23.08;18.30;;;;;;;;;;5050465;28;20051;-67
2022/03/07 06:53:59;;;;;;;21.10;17.40;;;;;;;;;;5050135;28;20404;-65
2022/03/07 06:57:03;;;;;;;20.98;16.65;;;;;;;;;;5050141;28;20056;-66
2022/03/07 07:00:13;;;;;;;23.08;16.70;;;;;;;;;;5050482;28;20044;-64
2022/03/07 07:03:17;;;;;;;20.85;15.65;;;;;;;;;;5053471;28;20056;-65
2022/03/07 07:06:22;;;;;;;19.40;14.05;;;;;;;;;;5053988;28;20055;-65
2022/03/07 07:09:26;;;;;;;17.77;13.50;;;;;;;;;;5054062;28;20056;-66
2022/03/07 07:12:30;;;;;;;24.73;15.65;;;;;;;;;;5053077;28;20400;-65
2022/03/07 07:15:34;;;;;;;48.80;30.60;;;;;;;;;;5053542;28;20056;-65
2022/03/07 07:18:39;;;;;;;42.88;25.52;;;;;;;;;;5053800;28;20048;-64
2022/03/07 07:21:43;;;;;;;30.48;18.70;;;;;;;;;;5054186;28;20048;-66
2022/03/07 07:24:47;;;;;;;33.72;19.33;;;;;;;;;;5053494;28;20503;-65
2022/03/07 07:27:51;;;;;;;24.30;16.05;;;;;;;;;;5053706;28;20048;-65
2022/03/07 07:30:56;;;;;;;27.20;16.95;;;;;;;;;;5053450;28;20051;-66
2022/03/07 07:34:00;;;;;;;22.15;14.40;;;;;;;;;;5053169;28;20627;-68
2022/03/07 07:37:04;;;;;;;22.40;15.05;;;;;;;;;;5053165;28;20057;-68
2022/03/07 07:40:09;;;;;;;21.75;14.45;;;;;;;;;;5052803;28;20052;-66
2022/03/07 07:43:13;;;;;;;18.05;13.93;;;;;;;;;;5053394;28;20111;-65
2022/03/07 07:46:19;;;;;;;20.55;13.85;;;;;;;;;;5053309;28;20048;-67
2022/03/07 07:49:24;;;;;;;19.65;14.18;;;;;;;;;;5053283;28;20043;-69
2022/03/07 07:52:29;;;;;;;26.13;15.15;;;;;;;;;;5053289;28;20044;-70
2022/03/07 07:55:33;;;;;;;23.17;14.52;;;;;;;;;;5052942;28;20060;-70
2022/03/07 07:58:37;;;;;;;24.83;15.90;;;;;;;;;;5053451;28;20392;-69
2022/03/07 08:01:42;;;;;;;27.50;16.08;;;;;;;;;;5052005;28;20044;-66
2022/03/07 08:04:46;;;;;;;21.42;13.98;;;;;;;;;;5052934;28;20040;-65
2022/03/07 08:07:51;;;;;;;20.05;12.80;;;;;;;;;;5052832;28;20040;-67
2022/03/07 08:10:55;;;;;;;19.77;13.48;;;;;;;;;;5052797;28;20035;-68
2022/03/07 08:13:59;;;;;;;17.88;12.30;;;;;;;;;;5052559;28;20053;-67
2022/03/07 08:17:05;;;;;;;19.42;12.55;;;;;;;;;;5052496;28;20048;-65
2022/03/07 08:20:10;;;;;;;18.17;11.38;;;;;;;;;;5052482;28;20040;-68
2022/03/07 08:23:14;;;;;;;16.58;11.98;;;;;;;;;;5052390;28;20052;-66
2022/03/07 08:26:18;;;;;;;15.20;10.90;;;;;;;;;;5052666;28;20048;-73
2022/03/07 08:29:22;;;;;;;17.58;11.40;;;;;;;;;;5052201;28;20051;-67
2022/03/07 08:32:26;;;;;;;14.45;10.40;;;;;;;;;;5052528;28;20044;-68
2022/03/07 08:35:31;;;;;;;14.70;10.85;;;;;;;;;;5052541;28;20052;-67
2022/03/07 08:38:35;;;;;;;14.00;10.02;;;;;;;;;;5052343;28;20055;-68
2022/03/07 08:41:40;;;;;;;14.68;9.88;;;;;;;;;;5052528;28;20040;-70
2022/03/07 08:44:44;;;;;;;13.10;10.00;;;;;;;;;;5052057;28;20045;-67
2022/03/07 08:47:50;;;;;;;13.05;9.43;;;;;;;;;;5051995;28;20040;-70
2022/03/07 08:50:54;;;;;;;17.60;11.65;;;;;;;;;;5052436;28;20504;-68
2022/03/07 08:53:59;;;;;;;14.15;10.70;;;;;;;;;;5052154;28;20044;-68
2022/03/07 08:57:03;;;;;;;16.02;10.75;;;;;;;;;;5051479;28;20056;-70
2022/03/07 09:00:12;;;;;;;14.38;10.35;;;;;;;;;;5050845;28;20044;-68
2022/03/07 09:03:16;;;;;;;16.25;10.15;;;;;;;;;;5052191;28;20052;-72
2022/03/07 09:06:20;;;;;;;23.83;10.95;;;;;;;;;;5051917;28;20044;-70
2022/03/07 09:09:26;;;;;;;18.90;11.05;;;;;;;;;;5051864;28;20048;-70
2022/03/07 09:12:30;;;;;;;14.18;10.43;;;;;;;;;;5051711;28;20040;-71
2022/03/07 09:15:35;;;;;;;15.75;10.10;;;;;;;;;;5051371;28;20103;-73
2022/03/07 09:18:39;;;;;;;16.60;9.60;;;;;;;;;;5051782;28;20059;-69
2022/03/07 09:21:43;;;;;;;15.40;10.45;;;;;;;;;;5051810;28;20045;-69
2022/03/07 09:24:48;;;;;;;18.02;11.10;;;;;;;;;;5050184;28;20048;-66
2022/03/07 09:27:52;;;;;;;14.23;9.77;;;;;;;;;;5051271;28;20048;-67
2022/03/07 09:30:56;;;;;;;17.40;11.18;;;;;;;;;;5051540;28;20040;-68
2022/03/07 09:34:01;;;;;;;15.93;11.02;;;;;;;;;;5051478;28;20044;-67
2022/03/07 09:37:06;;;;;;;15.18;10.45;;;;;;;;;;5051057;28;20047;-67
2022/03/07 09:40:11;;;;;;;12.77;10.50;;;;;;;;;;5051478;28;20052;-70
2022/03/07 09:43:15;;;;;;;15.77;11.20;;;;;;;;;;5051418;28;20392;-68
2022/03/07 09:46:19;;;;;;;15.05;10.65;;;;;;;;;;5051102;28;20040;-67
2022/03/07 09:49:24;;;;;;;15.65;10.65;;;;;;;;;;5050997;28;20040;-69
2022/03/07 09:52:28;;;;;;;15.55;10.02;;;;;;;;;;5050079;28;20063;-68
2022/03/07 09:55:32;;;;;;;15.30;11.00;;;;;;;;;;5051111;28;20048;-68
2022/03/07 09:58:36;;;;;;;16.48;11.60;;;;;;;;;;5050891;28;20053;-68
2022/03/07 10:01:41;;;;;;;13.35;10.43;;;;;;;;;;5050821;28;20040;-70
2022/03/07 10:04:46;;;;;;;24.75;13.80;;;;;;;;;;5050645;28;20044;-68
2022/03/07 10:07:50;;;;;;;17.23;10.68;;;;;;;;;;5051135;28;20483;-76
2022/03/07 10:10:55;;;;;;;13.70;10.45;;;;;;;;;;5050757;28;20123;-68
2022/03/07 10:14:00;;;;;;;10.77;9.05;;;;;;;;;;5050679;28;20048;-67
2022/03/07 10:17:04;;;;;;;15.13;10.43;;;;;;;;;;5050749;28;20045;-68
2022/03/07 10:20:09;;;;;;;12.80;10.05;;;;;;;;;;5050875;28;20044;-69
2022/03/07 10:23:13;;;;;;;12.18;9.45;;;;;;;;;;5050360;28;20048;-69
2022/03/07 10:26:17;;;;;;;14.52;10.35;;;;;;;;;;5050500;28;20037;-70
2022/03/07 10:29:22;;;;;;;15.35;10.07;;;;;;;;;;5050736;28;20103;-69
2022/03/07 10:32:26;;;;;;;13.00;9.52;;;;;;;;;;5049817;28;20044;-69
2022/03/07 10:35:33;;;;;;;18.27;10.80;;;;;;;;;;5049998;28;20040;-66
2022/03/07 10:38:37;;;;;;;12.82;9.52;;;;;;;;;;5054311;28;20528;-68
2022/03/07 10:41:42;;;;;;;45.00;16.40;;;;;;;;;;5053698;28;20037;-68
2022/03/07 10:44:47;;;;;;;21.13;11.13;;;;;;;;;;5052177;28;20044;-67
2022/03/07 10:47:53;;;;;;;14.77;9.95;;;;;;;;;;5052176;28;20048;-69
2022/03/07 10:50:58;;;;;;;13.65;10.07;;;;;;;;;;5052228;28;20036;-68
2022/03/07 10:54:12;;;;;;;13.32;9.95;;;;;;;;;;5053290;28;20044;-67
2022/03/07 10:57:20;;;;;;;13.77;10.48;;;;;;;;;;5052881;28;20048;-67
2022/03/07 11:00:26;;;;;;;14.80;8.85;;;;;;;;;;5053785;28;20396;-67
2022/03/07 11:03:33;;;;;;;13.20;9.45;;;;;;;;;;5054139;28;20037;-67
2022/03/07 11:06:38;;;;;;;13.63;9.18;;;;;;;;;;5054036;28;20037;-68
2022/03/07 11:09:46;;;;;;;11.75;8.95;;;;;;;;;;5054175;28;20037;-67
2022/03/07 11:12:50;;;;;;;13.85;9.10;;;;;;;;;;5054109;28;20481;-67
2022/03/07 11:15:56;;;;;;;11.75;9.20;;;;;;;;;;5053734;28;20041;-67
2022/03/07 11:19:01;;;;;;;12.63;9.23;;;;;;;;;;5053849;28;20040;-67
2022/03/07 11:22:05;;;;;;;16.85;9.77;;;;;;;;;;5054005;28;20032;-67
2022/03/07 11:25:15;;;;;;;31.17;11.43;;;;;;;;;;5053565;28;20045;-68
2022/03/07 11:28:21;;;;;;;14.65;9.45;;;;;;;;;;5053666;28;20055;-68
2022/03/07 11:31:28;;;;;;;12.27;9.35;;;;;;;;;;5053529;28;20029;-67
2022/03/07 11:34:32;;;;;;;18.67;10.77;;;;;;;;;;5053315;28;20033;-68
2022/03/07 11:37:36;;;;;;;18.05;11.52;;;;;;;;;;5052488;28;20051;-68
2022/03/07 11:41:13;;;;;;;17.35;10.88;;;;;;;;;;5053379;28;20043;-68
2022/03/07 11:44:22;;;;;;;15.55;10.70;;;;;;;;;;5052855;28;20064;-68
2022/03/07 11:47:35;;;;;;;20.58;10.50;;;;;;;;;;5053271;28;20043;-67
2022/03/07 11:50:40;;;;;;;14.70;10.00;;;;;;;;;;5053694;28;20053;-68
2022/03/07 11:53:44;;;;;;;15.65;10.48;;;;;;;;;;5052950;28;20040;-68
2022/03/07 11:56:49;;;;;;;17.33;10.68;;;;;;;;;;5052968;28;20421;-68
2022/03/07 11:59:53;;;;;;;19.63;12.13;;;;;;;;;;5052445;28;20044;-67
2022/03/07 12:02:58;;;;;;;12.15;8.27;;;;;;;;;;5053209;28;20511;-67
2022/03/07 12:06:12;;;;;;;18.15;10.70;;;;;;;;;;5052957;28;20048;-67
2022/03/07 12:09:26;;;;;;;16.15;8.93;;;;;;;;;;5052716;28;20052;-67
2022/03/07 12:12:30;;;;;;;13.57;8.75;;;;;;;;;;5053037;28;20045;-67
2022/03/07 12:15:52;;;;;;;17.25;9.23;;;;;;;;;;5052486;28;20484;-67
2022/03/07 12:19:08;;;;;;;13.55;8.63;;;;;;;;;;5052997;28;20049;-66
2022/03/07 12:22:14;;;;;;;13.30;8.80;;;;;;;;;;5052887;28;20040;-67
2022/03/07 12:25:19;;;;;;;18.50;11.05;;;;;;;;;;5052622;28;20041;-67
2022/03/07 12:28:27;;;;;;;14.23;8.52;;;;;;;;;;5052786;28;20048;-67
2022/03/07 12:31:31;;;;;;;11.82;9.00;;;;;;;;;;5052490;28;20041;-67
2022/03/07 12:34:36;;;;;;;13.88;9.50;;;;;;;;;;5052366;28;20041;-66
2022/03/07 12:37:41;;;;;;;13.50;9.48;;;;;;;;;;5052158;28;20449;-67
2022/03/07 12:40:49;;;;;;;12.95;8.65;;;;;;;;;;5052456;28;20037;-67
2022/03/07 12:43:53;;;;;;;14.23;8.35;;;;;;;;;;5052296;28;20037;-67
2022/03/07 12:46:58;;;;;;;13.13;8.35;;;;;;;;;;5052234;28;20033;-67
2022/03/07 12:50:03;;;;;;;26.48;16.73;;;;;;;;;;5050311;28;20048;-67
2022/03/07 12:53:12;;;;;;;11.25;8.20;;;;;;;;;;5050247;28;20693;-67
2022/03/07 12:56:21;;;;;;;17.17;11.50;;;;;;;;;;5049786;28;20045;-67
2022/03/07 12:59:26;;;;;;;10.90;8.35;;;;;;;;;;5048722;28;20068;-67
2022/03/07 13:02:35;;;;;;;12.68;7.55;;;;;;;;;;5050758;28;20037;-67
2022/03/07 13:05:39;;;;;;;12.45;8.25;;;;;;;;;;5051845;28;20045;-67
2022/03/07 13:08:50;;;;;;;12.82;8.15;;;;;;;;;;5051663;28;20037;-66
2022/03/07 13:11:54;;;;;;;12.80;8.75;;;;;;;;;;5051759;28;20029;-67
2022/03/07 13:14:59;;;;;;;12.52;8.13;;;;;;;;;;5051833;28;20044;-67
2022/03/07 13:18:04;;;;;;;14.05;7.53;;;;;;;;;;5051645;28;20053;-67
2022/03/07 13:21:09;;;;;;;19.33;8.57;;;;;;;;;;5051719;28;20040;-67
2022/03/07 13:24:18;;;;;;;15.20;9.23;;;;;;;;;;5051637;28;20049;-68
2022/03/07 13:27:23;;;;;;;11.20;8.07;;;;;;;;;;5051629;28;20033;-73
2022/03/07 13:30:27;;;;;;;12.52;7.97;;;;;;;;;;5051771;28;20041;-70
2022/03/07 13:33:33;;;;;;;13.40;8.02;;;;;;;;;;5051524;28;20029;-70
2022/03/07 13:36:41;;;;;;;9.43;7.35;;;;;;;;;;5051311;28;20049;-67
2022/03/07 13:39:46;;;;;;;9.48;7.95;;;;;;;;;;5051333;28;20029;-68
2022/03/07 13:42:51;;;;;;;21.75;9.60;;;;;;;;;;5051112;28;20029;-70
2022/03/07 13:45:55;;;;;;;11.48;7.05;;;;;;;;;;5051246;28;20037;-68
2022/03/07 13:49:04;;;;;;;10.27;8.15;;;;;;;;;;5051241;28;20033;-67
2022/03/07 13:52:12;;;;;;;11.73;7.55;;;;;;;;;;5050789;28;20066;-70
2022/03/07 13:55:19;;;;;;;11.50;7.03;;;;;;;;;;5051206;28;20373;-68
2022/03/07 13:58:24;;;;;;;9.63;7.00;;;;;;;;;;5050863;28;20373;-72
2022/03/07 14:01:30;;;;;;;11.20;8.25;;;;;;;;;;5051211;28;20041;-70
2022/03/07 14:04:36;;;;;;;10.70;7.10;;;;;;;;;;5050956;28;20033;-69
2022/03/07 14:07:42;;;;;;;10.82;7.57;;;;;;;;;;5050750;28;20041;-69
2022/03/07 14:10:56;;;;;;;12.45;7.63;;;;;;;;;;5050493;28;20044;-70
2022/03/07 14:14:00;;;;;;;12.23;7.22;;;;;;;;;;5050728;28;20057;-69
2022/03/07 14:17:14;;;;;;;9.90;6.88;;;;;;;;;;5050894;28;20056;-72
2022/03/07 14:20:18;;;;;;;10.25;6.88;;;;;;;;;;5050861;28;20029;-70
2022/03/07 14:23:23;;;;;;;29.02;10.50;;;;;;;;;;5050945;28;20036;-71
2022/03/07 14:26:27;;;;;;;12.40;6.45;;;;;;;;;;5050702;28;20511;-70
2022/03/07 14:29:31;;;;;;;11.15;7.40;;;;;;;;;;5050622;28;20041;-70
2022/03/07 14:32:35;;;;;;;11.10;7.25;;;;;;;;;;5050569;28;20041;-68
2022/03/07 14:35:40;;;;;;;11.02;7.18;;;;;;;;;;5050898;28;20041;-72
2022/03/07 14:38:44;;;;;;;8.98;7.20;;;;;;;;;;5050819;28;20049;-71
2022/03/07 14:41:48;;;;;;;11.35;7.82;;;;;;;;;;5050605;28;20049;-69
2022/03/07 14:44:53;;;;;;;12.65;8.10;;;;;;;;;;5050314;28;20377;-70
2022/03/07 14:47:57;;;;;;;11.35;8.25;;;;;;;;;;5050437;28;20382;-74
2022/03/07 14:51:01;;;;;;;13.80;8.23;;;;;;;;;;5049905;28;20488;-78
2022/03/07 14:54:06;;;;;;;12.77;8.30;;;;;;;;;;5050424;28;20029;-66
2022/03/07 14:57:10;;;;;;;16.67;10.32;;;;;;;;;;5050371;28;20045;-67
2022/03/07 15:00:18;;;;;;;12.43;8.07;;;;;;;;;;5050736;28;20052;-68
2022/03/07 15:03:22;;;;;;;10.95;8.23;;;;;;;;;;5050128;28;20382;-71
2022/03/07 15:06:27;;;;;;;12.10;8.52;;;;;;;;;;5050161;28;20623;-67
2022/03/07 15:09:32;;;;;;;11.48;7.57;;;;;;;;;;5050410;28;20041;-68
2022/03/07 15:12:36;;;;;;;13.02;8.02;;;;;;;;;;5050355;28;20052;-70
2022/03/07 15:15:41;;;;;;;11.80;8.70;;;;;;;;;;5049758;28;20161;-66
2022/03/07 15:18:47;;;;;;;16.65;10.40;;;;;;;;;;5050005;28;20037;-72
2022/03/07 15:21:55;;;;;;;17.77;10.00;;;;;;;;;;5050312;28;20056;-69
2022/03/07 15:24:59;;;;;;;15.27;11.25;;;;;;;;;;5053859;28;20471;-68
2022/03/07 15:28:03;;;;;;;17.20;11.40;;;;;;;;;;5052626;28;20052;-69
2022/03/07 15:31:08;;;;;;;23.17;10.30;;;;;;;;;;5054025;28;20051;-71
2022/03/07 15:34:12;;;;;;;21.13;10.40;;;;;;;;;;5053878;28;20048;-69
2022/03/07 15:37:17;;;;;;;14.75;10.65;;;;;;;;;;5053351;28;20203;-71
2022/03/07 15:40:23;;;;;;;12.80;9.70;;;;;;;;;;5053875;28;20471;-69
2022/03/07 15:43:27;;;;;;;18.27;10.27;;;;;;;;;;5053215;28;20036;-71
2022/03/07 15:46:32;;;;;;;16.25;9.27;;;;;;;;;;5053551;28;20043;-71
2022/03/07 15:49:36;;;;;;;14.38;9.63;;;;;;;;;;5052616;28;20036;-72
2022/03/07 15:52:41;;;;;;;15.18;8.45;;;;;;;;;;5052237;28;20033;-71
2022/03/07 15:55:47;;;;;;;14.23;9.20;;;;;;;;;;5053006;28;20508;-73
2022/03/07 15:58:51;;;;;;;28.10;9.32;;;;;;;;;;5052976;28;20041;-68
2022/03/07 16:01:58;;;;;;;21.10;13.02;;;;;;;;;;5052789;28;20041;-72
2022/03/07 16:05:04;;;;;;;20.38;12.35;;;;;;;;;;5052717;28;20150;-73
2022/03/07 16:08:12;;;;;;;12.15;9.63;;;;;;;;;;5040462;28;20036;-70
2022/03/07 16:11:17;;;;;;;14.15;8.57;;;;;;;;;;5040537;28;20041;-71
2022/03/07 16:14:21;;;;;;;14.98;9.48;;;;;;;;;;5052705;28;20036;-69
2022/03/07 16:17:28;;;;;;;13.10;9.43;;;;;;;;;;5052621;28;20041;-67
2022/03/07 16:20:32;;;;;;;15.40;9.70;;;;;;;;;;5052312;28;20500;-71
2022/03/07 16:23:36;;;;;;;19.70;10.93;;;;;;;;;;5052504;28;20045;-69
2022/03/07 16:26:41;;;;;;;56.83;27.20;;;;;;;;;;5052764;28;20535;-69
2022/03/07 16:29:46;;;;;;;24.52;12.48;;;;;;;;;;5052831;28;20147;-69
2022/03/07 16:32:51;;;;;;;21.58;13.55;;;;;;;;;;5051883;28;20109;-68
2022/03/07 16:35:55;;;;;;;11.50;8.55;;;;;;;;;;5052725;28;20500;-70
2022/03/07 16:39:00;;;;;;;25.30;13.23;;;;;;;;;;5052480;28;20045;-70
2022/03/07 16:42:04;;;;;;;14.60;9.93;;;;;;;;;;5052060;28;20032;-71
2022/03/07 16:45:08;;;;;;;15.90;9.30;;;;;;;;;;5052514;28;20037;-78
2022/03/07 16:48:13;;;;;;;14.30;9.30;;;;;;;;;;5051174;28;20037;-69
2022/03/07 16:51:17;;;;;;;14.57;9.35;;;;;;;;;;5052255;28;20045;-70
2022/03/07 16:54:21;;;;;;;10.90;7.95;;;;;;;;;;5051998;28;20040;-69
2022/03/07 16:57:26;;;;;;;12.75;8.32;;;;;;;;;;5052473;28;20049;-77
2022/03/07 17:00:30;;;;;;;20.10;12.00;;;;;;;;;;5052766;28;20033;-72
2022/03/07 17:03:34;;;;;;;13.45;9.43;;;;;;;;;;5051553;28;20040;-70
2022/03/07 17:06:38;;;;;;;13.57;9.73;;;;;;;;;;5051825;28;20366;-71
2022/03/07 17:09:43;;;;;;;13.90;9.13;;;;;;;;;;5051431;28;20029;-69
2022/03/07 17:12:48;;;;;;;22.42;11.10;;;;;;;;;;5051191;28;20032;-70
2022/03/07 17:15:52;;;;;;;11.50;9.00;;;;;;;;;;5051059;28;20060;-68
2022/03/07 17:18:56;;;;;;;17.77;11.00;;;;;;;;;;5051209;28;20045;-69
2022/03/07 17:22:00;;;;;;;18.20;11.88;;;;;;;;;;5051271;28;20044;-74
2022/03/07 17:25:05;;;;;;;16.52;9.57;;;;;;;;;;5051750;28;20044;-70
2022/03/07 17:28:09;;;;;;;14.93;9.63;;;;;;;;;;5051540;28;20037;-68
2022/03/07 17:31:13;;;;;;;63.95;27.27;;;;;;;;;;5051465;28;20036;-69
2022/03/07 17:34:18;;;;;;;25.27;17.02;;;;;;;;;;5051992;28;20036;-70
2022/03/07 17:37:22;;;;;;;24.65;15.85;;;;;;;;;;5050265;28;20511;-70
2022/03/07 17:40:27;;;;;;;17.35;9.90;;;;;;;;;;5051448;28;20051;-74
2022/03/07 17:43:32;;;;;;;12.25;8.30;;;;;;;;;;5050043;28;20032;-73
2022/03/07 17:46:37;;;;;;;13.38;9.48;;;;;;;;;;5050614;28;20041;-71
2022/03/07 17:49:41;;;;;;;28.02;17.27;;;;;;;;;;5051331;28;20041;-71
2022/03/07 17:52:45;;;;;;;25.35;15.27;;;;;;;;;;5051174;28;20511;-75
2022/03/07 17:55:50;;;;;;;15.82;10.70;;;;;;;;;;5050805;28;20044;-71
2022/03/07 17:58:54;;;;;;;24.23;15.13;;;;;;;;;;5050699;28;20056;-69
2022/03/07 18:01:58;;;;;;;30.08;15.90;;;;;;;;;;5050633;28;20392;-69